Time;durP1;ratioP1;P1;durP2;ratioP2;P2;SDS_P1;SDS_P2;PMS_P1;PMS_P2;Temp;Humidity;BMP_temperature;BMP_pressure;BME280_temperature;BME280_humidity;BME280_pressure;Samples;Min_cycle;Max_cycle;Signal;HPM_P1;HPM_P2
2022/06/23 00:01:00;;;;;;;5.00;2.35;;;19.00;71.60;;;;;;2095658;28;20739;-91
2022/06/23 00:02:24;;;;;;;5.00;2.38;;;18.90;71.60;;;;;;2099588;28;20028;-92
2022/06/23 00:03:48;;;;;;;4.68;2.13;;;18.90;71.70;;;;;;2090789;28;20462;-91
2022/06/23 00:05:14;;;;;;;6.00;2.17;;;18.90;72.40;;;;;;2094079;28;20041;-92
2022/06/23 00:06:55;;;;;;;4.32;2.03;;;18.90;71.90;;;;;;2092753;28;20036;-91
2022/06/23 00:08:20;;;;;;;3.70;2.30;;;18.80;72.00;;;;;;2092787;28;20024;-91
2022/06/23 00:09:46;;;;;;;3.75;2.03;;;18.80;72.10;;;;;;2087271;28;20495;-92
2022/06/23 00:11:22;;;;;;;4.88;2.40;;;18.80;72.10;;;;;;2089680;28;20104;-91
2022/06/23 00:12:43;;;;;;;6.40;2.42;;;18.80;72.40;;;;;;2090716;28;20032;-91
2022/06/23 00:14:13;;;;;;;5.70;2.38;;;18.80;72.30;;;;;;2089695;28;20101;-91
2022/06/23 00:15:42;;;;;;;4.53;2.35;;;18.80;72.40;;;;;;2081703;28;20030;-90
2022/06/23 00:17:28;;;;;;;5.57;2.58;;;18.80;72.60;;;;;;2094943;28;20084;-92
2022/06/23 00:18:48;;;;;;;3.65;2.13;;;18.70;72.70;;;;;;2096822;28;20025;-91
2022/06/23 00:20:27;;;;;;;4.80;2.35;;;18.70;72.60;;;;;;2095536;28;20029;-92
2022/06/23 00:21:52;;;;;;;4.88;2.40;;;18.70;72.70;;;;;;2096656;28;20097;-90
2022/06/23 00:23:24;;;;;;;5.45;2.53;;;18.70;72.90;;;;;;2091955;28;20017;-91
2022/06/23 00:24:44;;;;;;;;;;;18.70;73.00;;;;;;2091905;28;20037;-90
2022/06/23 00:26:11;;;;;;;6.22;2.30;;;18.60;72.90;;;;;;2087358;28;19916;-92
2022/06/23 00:27:34;;;;;;;5.03;2.00;;;18.60;72.70;;;;;;2090622;28;20111;-90
2022/06/23 00:29:06;;;;;;;3.83;2.00;;;18.60;72.90;;;;;;2096267;28;20024;-91
2022/06/23 00:30:39;;;;;;;4.63;1.98;;;18.60;72.90;;;;;;2092658;28;20037;-91
2022/06/23 00:32:03;;;;;;;4.03;2.10;;;18.60;73.60;;;;;;2092166;28;20045;-91
2022/06/23 00:33:51;;;;;;;5.30;2.45;;;18.60;73.20;;;;;;2098003;28;20048;-91
2022/06/23 00:35:16;;;;;;;4.43;2.50;;;18.60;73.20;;;;;;2090805;28;20033;-91
2022/06/23 00:36:48;;;;;;;3.85;2.10;;;18.60;73.20;;;;;;2096356;28;20032;-92
2022/06/23 00:38:26;;;;;;;3.50;2.00;;;18.60;73.30;;;;;;2097173;28;20024;-91
2022/06/23 00:39:56;;;;;;;6.15;2.30;;;18.50;73.90;;;;;;2096354;28;20498;-91
2022/06/23 00:41:19;;;;;;;3.25;1.98;;;18.50;73.40;;;;;;2088776;28;20072;-91
2022/06/23 00:42:49;;;;;;;5.13;2.20;;;18.50;73.30;;;;;;2087869;28;20566;-91
2022/06/23 00:44:29;;;;;;;4.78;2.20;;;18.50;73.40;;;;;;2091727;28;20029;-91
2022/06/23 00:46:05;;;;;;;5.13;2.20;;;18.50;73.40;;;;;;2098205;28;20045;-92
2022/06/23 00:47:58;;;;;;;3.97;2.03;;;18.50;73.40;;;;;;2096524;28;20055;-91
2022/06/23 00:49:23;;;;;;;4.25;2.58;;;18.50;73.40;;;;;;2090265;28;20108;-91
2022/06/23 00:50:57;;;;;;;3.72;2.10;;;18.50;73.40;;;;;;2087750;28;20041;-91
2022/06/23 00:52:22;;;;;;;4.55;2.30;;;18.50;73.50;;;;;;2097731;28;20099;-91
2022/06/23 00:54:01;;;;;;;6.13;2.50;;;18.50;73.60;;;;;;2092899;28;20033;-90
2022/06/23 00:55:35;;;;;;;6.13;2.30;;;18.50;74.20;;;;;;2089726;28;20033;-91
2022/06/23 00:57:10;;;;;;;3.63;2.17;;;18.40;73.50;;;;;;2097465;28;20119;-91
2022/06/23 00:58:54;;;;;;;4.43;2.28;;;18.50;73.60;;;;;;2090330;28;20029;-91
2022/06/23 01:00:36;;;;;;;3.47;2.10;;;18.40;73.60;;;;;;2098049;28;20033;-92
2022/06/23 01:02:07;;;;;;;5.57;2.55;;;18.50;73.60;;;;;;2090709;28;20037;-91
2022/06/23 01:03:31;;;;;;;4.63;2.33;;;18.40;73.60;;;;;;2098236;28;20042;-90
2022/06/23 01:05:01;;;;;;;4.22;2.20;;;18.40;73.60;;;;;;2098232;28;20029;-90
2022/06/23 01:06:39;;;;;;;5.85;2.65;;;18.40;73.80;;;;;;2089190;28;20032;-91
2022/06/23 01:08:23;;;;;;;5.28;2.35;;;18.40;73.80;;;;;;2090818;28;20029;-90
2022/06/23 01:09:50;;;;;;;5.43;2.85;;;18.40;73.80;;;;;;2090521;28;20459;-91
2022/06/23 01:11:29;;;;;;;5.65;2.70;;;18.40;73.80;;;;;;2098660;28;20036;-91
2022/06/23 01:13:00;;;;;;;5.75;2.53;;;18.40;73.80;;;;;;2089889;28;20104;-91
2022/06/23 01:14:58;;;;;;;5.90;2.58;;;18.40;73.90;;;;;;2093748;28;20032;-90
2022/06/23 01:16:29;;;;;;;4.50;2.30;;;18.40;73.90;;;;;;2090213;28;20037;-91
2022/06/23 01:17:57;;;;;;;3.30;1.95;;;18.40;73.80;;;;;;2088738;28;20061;-91
2022/06/23 01:19:51;;;;;;;4.93;2.40;;;18.40;73.80;;;;;;2090414;28;20057;-90
2022/06/23 01:21:19;;;;;;;7.25;1.90;;;18.40;73.70;;;;;;2091049;28;20506;-90
2022/06/23 01:22:53;;;;;;;3.70;2.08;;;18.40;73.60;;;;;;2089921;28;20423;-90
2022/06/23 01:24:27;;;;;;;4.78;1.95;;;18.40;73.70;;;;;;2091470;28;20036;-89
2022/06/23 01:26:11;;;;;;;3.65;2.08;;;18.40;73.60;;;;;;2090938;28;20041;-90
2022/06/23 01:27:46;;;;;;;3.95;2.00;;;18.40;73.60;;;;;;2090756;28;20028;-93
2022/06/23 01:29:23;;;;;;;3.15;1.83;;;18.40;73.60;;;;;;2089889;28;20025;-90
2022/06/23 01:30:56;;;;;;;4.47;2.22;;;18.40;73.60;;;;;;2096861;28;20123;-90
2022/06/23 01:32:23;;;;;;;4.88;2.10;;;18.30;73.60;;;;;;2088033;28;20491;-92
2022/06/23 01:33:50;;;;;;;3.88;1.98;;;18.40;73.60;;;;;;2090090;28;20116;-92
2022/06/23 01:35:18;;;;;;;4.70;2.05;;;18.30;73.70;;;;;;2096827;28;20447;-90
2022/06/23 01:37:09;;;;;;;4.50;2.03;;;18.30;73.70;;;;;;2098308;28;20490;-92
2022/06/23 01:38:52;;;;;;;4.22;2.05;;;18.30;73.80;;;;;;2093690;28;20045;-92
2022/06/23 01:40:34;;;;;;;3.10;1.90;;;18.30;73.80;;;;;;2090163;28;20033;-93
2022/06/23 01:41:58;;;;;;;3.95;1.88;;;18.30;73.80;;;;;;2089997;28;20029;-92
2022/06/23 01:43:34;;;;;;;3.92;2.03;;;18.30;73.80;;;;;;2093773;28;20020;-92
2022/06/23 01:45:04;;;;;;;4.82;2.40;;;18.30;73.90;;;;;;2096950;28;20072;-92
2022/06/23 01:46:30;;;;;;;3.50;2.10;;;18.30;73.90;;;;;;2092447;28;20041;-92
2022/06/23 01:48:01;;;;;;;8.30;2.58;;;18.20;73.90;;;;;;2090816;28;20028;-92
2022/06/23 01:49:26;;;;;;;5.20;2.10;;;18.30;74.00;;;;;;2090255;28;20116;-91
2022/06/23 01:50:53;;;;;;;4.93;2.30;;;18.20;74.00;;;;;;2089620;28;20029;-92
2022/06/23 01:52:18;;;;;;;3.78;2.20;;;18.20;74.10;;;;;;2090434;28;20033;-92
2022/06/23 01:53:37;;;;;;;3.50;2.17;;;18.20;74.10;;;;;;2090396;28;20025;-92
2022/06/23 01:55:04;;;;;;;3.55;2.00;;;18.20;74.20;;;;;;2085815;28;20033;-92
2022/06/23 01:56:43;;;;;;;4.45;2.58;;;18.20;74.20;;;;;;2088055;28;20064;-92
2022/06/23 01:58:07;;;;;;;5.43;2.70;;;18.20;74.40;;;;;;2092675;28;20028;-92
2022/06/23 01:59:41;;;;;;;4.45;2.60;;;18.20;74.40;;;;;;2089903;28;20029;-93
2022/06/23 02:01:03;;;;;;;4.05;2.17;;;18.10;74.40;;;;;;2096288;28;20028;-92
2022/06/23 02:02:48;;;;;;;4.25;2.40;;;18.10;75.10;;;;;;2086818;28;20526;-93
2022/06/23 02:04:46;;;;;;;4.72;2.10;;;18.10;74.50;;;;;;2096048;28;20040;-93
2022/06/23 02:06:16;;;;;;;3.35;1.88;;;18.10;74.50;;;;;;2081337;28;20045;-92
2022/06/23 02:07:45;;;;;;;5.60;2.03;;;18.10;74.50;;;;;;2079406;28;20044;-92
2022/06/23 02:09:20;;;;;;;5.57;2.30;;;18.00;74.50;;;;;;2091238;28;20025;-92
2022/06/23 02:10:49;;;;;;;5.03;2.47;;;18.00;74.60;;;;;;2095985;28;20045;-93
2022/06/23 02:12:29;;;;;;;4.05;2.05;;;18.00;74.70;;;;;;2097140;28;20033;-92
2022/06/23 02:14:33;;;;;;;4.72;2.60;;;18.00;74.80;;;;;;2090247;28;20538;-91
2022/06/23 02:16:21;;;;;;;5.10;2.20;;;18.00;74.80;;;;;;2089719;28;20033;-93
2022/06/23 02:17:50;;;;;;;4.68;2.20;;;17.90;74.90;;;;;;2089609;28;20025;-92
2022/06/23 02:19:30;;;;;;;4.43;2.15;;;17.90;74.90;;;;;;2087994;28;20025;-92
2022/06/23 02:21:45;;;;;;;4.55;2.65;;;17.90;75.00;;;;;;2090006;28;20507;-93
2022/06/23 02:23:24;;;;;;;4.32;2.20;;;17.90;75.00;;;;;;2068140;28;20053;-92
2022/06/23 02:24:49;;;;;;;5.70;2.80;;;17.90;75.00;;;;;;2071594;28;20058;-92
2022/06/23 02:26:08;;;;;;;3.72;2.10;;;17.90;75.00;;;;;;2093734;28;20029;-92
2022/06/23 02:27:52;;;;;;;3.78;2.25;;;17.80;75.00;;;;;;2093999;28;20515;-92
2022/06/23 02:29:21;;;;;;;3.47;2.17;;;17.80;75.10;;;;;;2093334;28;20028;-91
2022/06/23 02:31:05;;;;;;;4.32;2.20;;;17.80;75.10;;;;;;2091855;28;20036;-92
2022/06/23 02:32:43;;;;;;;5.68;2.35;;;17.80;75.20;;;;;;2096878;28;20064;-91
2022/06/23 02:34:49;;;;;;;4.53;2.10;;;17.80;75.20;;;;;;2091450;28;20013;-91
2022/06/23 02:36:41;;;;;;;3.33;2.20;;;17.80;75.20;;;;;;2089363;28;20036;-92
2022/06/23 02:38:08;;;;;;;4.13;2.13;;;17.80;75.10;;;;;;2088424;28;20064;-93
2022/06/23 02:39:40;;;;;;;5.28;2.60;;;17.80;75.10;;;;;;2089652;28;20017;-93
2022/06/23 02:41:14;;;;;;;4.28;2.28;;;17.80;75.30;;;;;;2082275;28;20033;-91
2022/06/23 02:42:38;;;;;;;4.72;2.60;;;17.80;75.30;;;;;;2089823;28;20025;-92
2022/06/23 02:44:18;;;;;;;5.32;2.47;;;17.80;75.40;;;;;;2091226;28;20021;-91
2022/06/23 02:46:02;;;;;;;4.82;2.55;;;17.70;75.30;;;;;;2088853;28;20049;-91
2022/06/23 02:47:28;;;;;;;4.65;2.20;;;17.70;75.30;;;;;;2089618;28;20037;-92
2022/06/23 02:49:09;;;;;;;4.25;2.33;;;17.80;75.30;;;;;;2087367;28;20021;-92
2022/06/23 02:50:42;;;;;;;3.28;2.00;;;17.80;75.30;;;;;;2089540;28;20156;-92
2022/06/23 02:52:34;;;;;;;4.80;2.40;;;17.80;75.30;;;;;;2088506;28;20029;-92
2022/06/23 02:54:16;;;;;;;3.50;1.90;;;17.80;75.30;;;;;;2090352;28;20029;-92
2022/06/23 02:55:47;;;;;;;3.28;1.88;;;17.70;75.30;;;;;;2090886;28;20025;-92
2022/06/23 02:57:31;;;;;;;4.72;2.40;;;17.70;75.20;;;;;;2091576;28;20099;-92
2022/06/23 02:59:08;;;;;;;4.30;2.03;;;17.80;75.30;;;;;;2089526;28;20033;-92
2022/06/23 03:00:47;;;;;;;5.78;2.65;;;17.70;75.30;;;;;;2092772;28;20025;-92
2022/06/23 03:02:14;;;;;;;4.40;2.13;;;17.70;75.40;;;;;;2089167;28;20115;-92
2022/06/23 03:03:40;;;;;;;4.35;2.38;;;17.70;75.40;;;;;;2088523;28;20064;-91
2022/06/23 03:05:05;;;;;;;4.65;2.20;;;17.70;75.50;;;;;;2087583;28;20021;-91
2022/06/23 03:06:31;;;;;;;3.60;2.15;;;17.70;75.50;;;;;;2090541;28;20419;-91
2022/06/23 03:08:22;;;;;;;4.25;2.22;;;17.70;75.60;;;;;;2093565;28;20104;-92
2022/06/23 03:09:44;;;;;;;;;;;17.70;75.60;;;;;;2088884;28;20467;-92
2022/06/23 03:11:15;;;;;;;5.03;2.20;;;17.70;75.60;;;;;;2099559;28;19912;-92
2022/06/23 03:13:06;;;;;;;5.65;2.20;;;17.60;75.50;;;;;;2098012;28;20028;-92
2022/06/23 03:14:42;;;;;;;3.75;2.15;;;17.60;75.50;;;;;;2095277;28;20041;-92
2022/06/23 03:16:25;;;;;;;3.63;2.10;;;17.60;75.50;;;;;;2098450;28;20072;-92
2022/06/23 03:17:51;;;;;;;4.68;2.40;;;17.60;75.60;;;;;;2091240;28;20063;-92
2022/06/23 03:19:27;;;;;;;5.97;2.50;;;17.60;75.60;;;;;;2091221;28;20025;-92
2022/06/23 03:20:59;;;;;;;4.53;2.47;;;17.60;75.70;;;;;;2091522;28;20036;-92
2022/06/23 03:22:41;;;;;;;4.53;2.47;;;17.60;75.70;;;;;;2090788;28;20029;-92
2022/06/23 03:24:31;;;;;;;4.20;1.98;;;17.60;75.70;;;;;;2091509;28;20029;-91
2022/06/23 03:26:03;;;;;;;4.10;2.28;;;17.60;75.80;;;;;;2082378;28;20041;-91
2022/06/23 03:27:45;;;;;;;4.47;1.90;;;17.60;75.80;;;;;;2091679;28;20045;-92
2022/06/23 03:29:15;;;;;;;4.25;2.33;;;17.60;75.70;;;;;;2091553;28;20024;-92
2022/06/23 03:30:42;;;;;;;4.35;2.35;;;17.60;75.70;;;;;;2093454;28;20033;-92
2022/06/23 03:32:11;;;;;;;6.80;2.60;;;17.60;75.80;;;;;;2098687;28;20433;-92
2022/06/23 03:33:43;;;;;;;4.47;2.60;;;17.60;75.90;;;;;;2104988;28;20064;-92
2022/06/23 03:35:24;;;;;;;5.65;2.40;;;17.50;75.90;;;;;;2093563;28;20029;-91
2022/06/23 03:37:01;;;;;;;5.40;2.40;;;17.50;75.90;;;;;;2093522;28;20451;-91
2022/06/23 03:42:40;;;;;;;4.82;2.00;;;17.50;76.00;;;;;;2091854;28;20139;-90
2022/06/23 03:44:32;;;;;;;4.50;2.10;;;17.50;75.90;;;;;;2092641;28;20020;-88
2022/06/23 03:46:13;;;;;;;4.90;2.40;;;17.50;75.90;;;;;;2091289;28;20033;-93
2022/06/23 03:47:47;;;;;;;3.42;2.05;;;17.50;75.90;;;;;;2092573;28;20108;-92
2022/06/23 03:49:51;;;;;;;5.15;2.25;;;17.50;75.90;;;;;;2091020;28;20391;-91
2022/06/23 03:51:26;;;;;;;4.05;2.28;;;17.50;75.90;;;;;;2090942;28;20582;-92
2022/06/23 03:52:50;;;;;;;5.75;2.55;;;17.50;75.90;;;;;;2097817;28;20024;-92
2022/06/23 03:54:20;;;;;;;5.47;2.35;;;17.50;75.90;;;;;;2092802;28;20021;-91
2022/06/23 03:55:52;;;;;;;3.55;2.20;;;17.50;76.00;;;;;;2090777;28;20056;-91
2022/06/23 03:57:39;;;;;;;3.38;1.95;;;17.50;76.00;;;;;;2090428;28;20033;-91
2022/06/23 03:59:48;;;;;;;5.20;2.53;;;17.50;75.90;;;;;;2091517;28;20032;-90
2022/06/23 04:01:19;;;;;;;5.05;1.95;;;17.60;75.90;;;;;;2091050;28;20033;-91
2022/06/23 04:02:49;;;;;;;3.42;2.00;;;17.50;75.80;;;;;;2089184;28;20419;-91
2022/06/23 04:04:27;;;;;;;5.10;2.50;;;17.60;75.80;;;;;;2092498;28;20017;-90
2022/06/23 04:05:55;;;;;;;5.88;2.40;;;17.50;75.80;;;;;;2096287;28;20040;-90
2022/06/23 04:08:04;;;;;;;3.63;2.50;;;17.60;75.80;;;;;;2093224;28;20398;-91
2022/06/23 04:09:35;;;;;;;4.43;1.98;;;17.60;75.80;;;;;;2091232;28;20415;-91
2022/06/23 04:11:43;;;;;;;3.50;2.10;;;17.60;75.70;;;;;;2088952;28;20029;-90
2022/06/23 04:13:06;;;;;;;4.00;2.33;;;17.60;75.70;;;;;;2091182;28;20045;-90
2022/06/23 04:15:05;;;;;;;4.45;2.30;;;17.70;75.70;;;;;;2096489;28;20111;-90
2022/06/23 04:16:32;;;;;;;3.40;1.98;;;17.70;75.60;;;;;;2099232;28;20561;-90
2022/06/23 04:18:08;;;;;;;3.80;2.03;;;17.80;75.50;;;;;;2093372;28;20041;-93
2022/06/23 04:19:30;;;;;;;4.47;2.17;;;17.80;75.40;;;;;;2096541;28;20045;-93
2022/06/23 04:20:57;;;;;;;5.18;2.20;;;17.80;75.40;;;;;;2090633;28;20523;-90
2022/06/23 04:22:25;;;;;;;3.92;2.22;;;17.90;75.40;;;;;;2091131;28;20056;-93
2022/06/23 04:23:49;;;;;;;5.38;2.50;;;17.90;75.30;;;;;;2090568;28;20029;-93
2022/06/23 04:25:16;;;;;;;5.07;2.40;;;17.90;75.30;;;;;;2089580;28;20457;-91
2022/06/23 04:26:42;;;;;;;3.85;2.20;;;17.90;75.30;;;;;;2095479;28;20060;-93
2022/06/23 04:28:02;;;;;;;4.05;2.40;;;17.90;75.30;;;;;;2090722;28;20402;-93
2022/06/23 04:29:37;;;;;;;3.60;2.30;;;17.90;75.20;;;;;;2087506;28;20029;-93
2022/06/23 04:31:02;;;;;;;4.45;2.35;;;18.00;75.30;;;;;;2097550;28;20028;-92
2022/06/23 04:32:33;;;;;;;5.07;2.47;;;18.00;75.30;;;;;;2088895;28;20037;-92
2022/06/23 04:33:54;;;;;;;3.60;2.42;;;18.00;75.30;;;;;;2090849;28;20036;-92
2022/06/23 04:35:16;;;;;;;3.95;2.40;;;18.00;75.40;;;;;;2091763;28;20479;-92
2022/06/23 04:36:43;;;;;;;4.78;2.38;;;17.90;75.30;;;;;;2092185;28;20025;-92
2022/06/23 04:38:11;;;;;;;3.85;2.00;;;18.00;75.30;;;;;;2090480;28;20487;-92
2022/06/23 04:40:11;;;;;;;3.75;2.15;;;18.00;75.30;;;;;;2088870;28;20041;-92
2022/06/23 04:41:45;;;;;;;3.42;1.95;;;18.00;75.20;;;;;;2090352;28;20025;-92
2022/06/23 04:43:31;;;;;;;6.43;2.67;;;18.00;75.20;;;;;;2095228;28;20028;-92
2022/06/23 04:45:17;;;;;;;5.72;2.58;;;18.00;75.30;;;;;;2094705;28;20040;-91
2022/06/23 04:47:03;;;;;;;4.88;2.20;;;18.00;75.20;;;;;;2092589;28;20028;-91
2022/06/23 04:48:32;;;;;;;3.88;2.13;;;18.00;75.20;;;;;;2096146;28;20441;-91
2022/06/23 04:50:10;;;;;;;4.75;2.75;;;18.00;75.20;;;;;;2092141;28;20036;-91
2022/06/23 04:51:38;;;;;;;3.92;2.20;;;18.00;75.20;;;;;;2091288;28;20028;-91
2022/06/23 04:52:59;;;;;;;4.60;2.25;;;18.10;75.30;;;;;;2097800;28;20028;-91
2022/06/23 04:54:30;;;;;;;5.63;2.70;;;18.00;75.20;;;;;;2092100;28;20076;-92
2022/06/23 04:56:25;;;;;;;;;;;;;;;;;;;;;
2022/06/23 04:58:33;;;;;;;4.07;2.30;;;18.10;75.10;;;;;;2092927;28;20024;-92
2022/06/23 05:00:45;;;;;;;4.43;2.40;;;18.20;75.00;;;;;;2098787;28;20407;-91
2022/06/23 05:03:01;;;;;;;4.63;2.25;;;18.30;74.80;;;;;;2093251;28;20033;-91
2022/06/23 05:04:26;;;;;;;3.83;2.20;;;18.40;74.70;;;;;;2090088;28;20040;-93
2022/06/23 05:06:13;;;;;;;4.65;2.33;;;18.40;74.50;;;;;;2080816;28;20072;-92
2022/06/23 05:08:02;;;;;;;3.70;2.40;;;18.50;74.40;;;;;;2093179;28;20119;-92
2022/06/23 05:09:31;;;;;;;4.97;2.42;;;18.60;74.10;;;;;;2090348;28;20041;-91
2022/06/23 05:11:14;;;;;;;3.22;2.05;;;18.60;74.00;;;;;;2094367;28;20029;-91
2022/06/23 05:12:47;;;;;;;4.47;2.33;;;18.70;73.90;;;;;;2090201;28;20033;-91
2022/06/23 05:14:20;;;;;;;5.80;2.42;;;18.90;73.80;;;;;;2085952;28;20029;-92
2022/06/23 05:15:48;;;;;;;4.60;2.30;;;18.90;73.50;;;;;;2093344;28;20052;-92
2022/06/23 05:17:19;;;;;;;3.85;2.30;;;19.00;73.30;;;;;;2090908;28;20032;-94
2022/06/23 05:18:51;;;;;;;4.95;2.30;;;19.10;73.20;;;;;;2096741;28;20033;-93
2022/06/23 05:20:41;;;;;;;4.32;2.60;;;19.10;73.00;;;;;;2091606;28;21762;-92
2022/06/23 05:22:27;;;;;;;4.53;2.50;;;19.20;72.90;;;;;;2093410;28;20391;-93
2022/06/23 05:23:53;;;;;;;5.80;2.30;;;19.20;72.70;;;;;;2098851;28;20021;-92
2022/06/23 05:25:43;;;;;;;4.63;2.20;;;19.30;72.70;;;;;;2105121;28;20037;-92
2022/06/23 05:27:08;;;;;;;3.15;2.05;;;19.30;72.50;;;;;;2099771;28;20028;-93
2022/06/23 05:28:32;;;;;;;4.70;2.28;;;19.40;72.50;;;;;;2095111;28;20025;-91
2022/06/23 05:29:54;;;;;;;4.13;2.15;;;19.50;72.30;;;;;;2097969;28;20075;-94
2022/06/23 05:31:35;;;;;;;4.05;2.20;;;19.50;72.10;;;;;;2087597;28;20029;-93
2022/06/23 05:33:14;;;;;;;4.85;2.47;;;19.60;71.90;;;;;;2090616;28;20037;-92
2022/06/23 05:34:42;;;;;;;3.45;2.22;;;19.60;71.70;;;;;;2090771;28;20029;-94
2022/06/23 05:36:05;;;;;;;3.70;2.33;;;19.60;71.50;;;;;;2093784;28;20028;-93
2022/06/23 05:37:33;;;;;;;4.28;2.20;;;19.70;71.50;;;;;;2098782;28;20048;-93
2022/06/23 05:39:01;;;;;;;4.35;2.20;;;19.80;71.40;;;;;;2098237;28;20448;-91
2022/06/23 05:40:38;;;;;;;4.88;2.28;;;19.80;71.20;;;;;;2097318;28;20477;-94
2022/06/23 05:42:01;;;;;;;6.15;2.22;;;19.90;71.10;;;;;;2097633;28;20064;-93
2022/06/23 05:43:21;;;;;;;4.30;2.45;;;19.90;71.00;;;;;;2095374;28;20036;-92
2022/06/23 05:44:51;;;;;;;4.22;2.35;;;20.00;71.50;;;;;;2086588;28;20053;-93
2022/06/23 05:46:20;;;;;;;3.53;2.10;;;20.00;70.70;;;;;;2093681;28;20037;-91
2022/06/23 05:47:41;;;;;;;4.50;2.28;;;20.10;70.60;;;;;;2090183;28;20476;-93
2022/06/23 05:49:13;;;;;;;5.03;2.50;;;20.10;70.50;;;;;;2090083;28;20115;-92
2022/06/23 05:50:41;;;;;;;3.50;2.05;;;20.10;70.40;;;;;;2089204;28;20108;-93
2022/06/23 05:52:06;;;;;;;4.47;2.15;;;20.10;70.30;;;;;;2088033;28;20060;-94
2022/06/23 05:54:00;;;;;;;4.45;2.42;;;20.20;70.30;;;;;;2087215;28;20017;-93
2022/06/23 05:55:48;;;;;;;7.00;2.45;;;20.20;70.00;;;;;;2090258;28;20029;-91
2022/06/23 05:57:13;;;;;;;3.80;2.28;;;20.30;70.70;;;;;;2098332;28;20029;-92
2022/06/23 05:58:46;;;;;;;3.85;2.13;;;20.30;69.70;;;;;;2087536;28;20041;-92
2022/06/23 06:00:15;;;;;;;4.25;1.92;;;20.30;69.60;;;;;;2090659;28;20033;-92
2022/06/23 06:01:41;;;;;;;2.83;1.90;;;20.40;69.60;;;;;;2096802;28;20028;-93
2022/06/23 06:03:09;;;;;;;4.70;2.00;;;20.40;69.40;;;;;;2089709;28;20029;-91
2022/06/23 06:04:41;;;;;;;4.90;2.33;;;20.50;69.40;;;;;;2090625;28;20021;-93
2022/06/23 06:06:02;;;;;;;5.35;2.45;;;20.60;69.10;;;;;;2093430;28;20036;-93
2022/06/23 06:07:34;;;;;;;5.25;2.08;;;20.60;69.00;;;;;;2082327;28;20116;-93
2022/06/23 06:10:36;;;;;;;3.22;1.95;;;20.60;68.90;;;;;;2093306;28;20041;-91
2022/06/23 06:11:59;;;;;;;3.03;1.77;;;20.60;69.00;;;;;;2099443;28;20037;-92
2022/06/23 06:13:36;;;;;;;4.75;2.08;;;20.70;69.50;;;;;;2089324;28;20025;-93
2022/06/23 06:15:15;;;;;;;3.63;2.00;;;20.70;68.80;;;;;;2093298;28;20503;-93
2022/06/23 06:16:34;;;;;;;4.47;2.22;;;20.80;68.60;;;;;;2100050;28;20037;-93
2022/06/23 06:18:02;;;;;;;5.00;2.10;;;20.90;68.40;;;;;;2097137;28;20037;-93
2022/06/23 06:19:26;;;;;;;3.78;2.60;;;20.90;68.20;;;;;;2095084;28;20032;-91
2022/06/23 06:20:46;;;;;;;4.43;2.20;;;20.90;68.10;;;;;;2094469;28;20032;-92
2022/06/23 06:22:39;;;;;;;4.78;2.30;;;20.90;68.10;;;;;;2083851;28;20450;-92
2022/06/23 06:24:37;;;;;;;5.53;2.10;;;20.90;68.10;;;;;;2096033;28;20037;-91
2022/06/23 06:26:00;;;;;;;4.70;1.90;;;21.00;68.20;;;;;;2086288;28;20078;-92
2022/06/23 06:27:20;;;;;;;3.30;1.90;;;21.00;68.00;;;;;;2084537;28;20021;-91
2022/06/23 06:28:39;;;;;;;3.88;1.83;;;21.10;67.80;;;;;;2083927;28;20514;-87
2022/06/23 06:29:59;;;;;;;4.07;2.20;;;21.20;67.60;;;;;;2079045;28;20120;-88
2022/06/23 06:31:35;;;;;;;4.50;2.28;;;21.20;67.40;;;;;;2078216;28;20033;-88
2022/06/23 06:32:55;;;;;;;4.75;2.00;;;21.30;67.50;;;;;;2090861;28;20029;-88
2022/06/23 06:34:25;;;;;;;3.83;1.83;;;21.30;67.40;;;;;;2074340;28;20463;-87
2022/06/23 06:35:54;;;;;;;2.70;1.80;;;21.40;67.40;;;;;;2085600;28;20036;-87
2022/06/23 06:37:16;;;;;;;3.00;2.00;;;21.40;67.10;;;;;;2088953;28;20406;-88
2022/06/23 06:38:35;;;;;;;3.97;2.40;;;21.50;67.10;;;;;;2084809;28;20457;-88
2022/06/23 06:39:58;;;;;;;4.95;2.05;;;21.50;66.90;;;;;;2087474;28;20115;-88
2022/06/23 06:41:17;;;;;;;4.50;2.15;;;21.60;66.90;;;;;;2092710;28;20497;-88
2022/06/23 06:42:44;;;;;;;3.47;1.90;;;21.60;66.80;;;;;;2081931;28;20033;-88
2022/06/23 06:44:04;;;;;;;3.28;1.95;;;21.70;66.80;;;;;;2086865;28;20112;-88
2022/06/23 06:45:29;;;;;;;3.90;1.98;;;21.70;66.60;;;;;;2085817;28;20474;-87
2022/06/23 06:46:49;;;;;;;3.53;1.90;;;21.80;66.50;;;;;;2092756;28;20414;-88
2022/06/23 06:48:24;;;;;;;6.18;2.28;;;21.90;66.40;;;;;;2096076;28;20055;-86
2022/06/23 06:49:43;;;;;;;5.50;2.20;;;21.90;66.20;;;;;;2095570;28;20063;-87
2022/06/23 06:51:22;;;;;;;3.42;1.77;;;22.00;66.10;;;;;;2090246;28;20024;-87
2022/06/23 06:52:42;;;;;;;5.00;1.90;;;22.10;66.00;;;;;;2088265;28;20387;-88
2022/06/23 06:54:10;;;;;;;3.63;1.92;;;22.20;65.80;;;;;;2080728;28;20503;-88
2022/06/23 06:55:35;;;;;;;4.03;2.00;;;22.30;65.80;;;;;;2091645;28;20033;-87
2022/06/23 06:57:00;;;;;;;3.22;1.80;;;22.30;65.60;;;;;;2094916;28;20024;-87
2022/06/23 06:58:30;;;;;;;4.47;2.17;;;22.40;65.60;;;;;;2088371;28;20041;-86
2022/06/23 07:00:06;;;;;;;4.72;2.53;;;22.40;65.40;;;;;;2096353;28;20029;-88
2022/06/23 07:01:26;;;;;;;3.78;1.90;;;22.50;65.30;;;;;;2095639;28;20040;-86
2022/06/23 07:02:55;;;;;;;4.90;2.20;;;22.50;65.20;;;;;;2081866;28;20033;-86
2022/06/23 07:04:33;;;;;;;4.30;1.98;;;22.50;65.30;;;;;;2086242;28;20362;-86
2022/06/23 07:06:01;;;;;;;4.00;2.10;;;22.60;65.20;;;;;;2090869;28;20040;-86
2022/06/23 07:07:24;;;;;;;5.10;2.33;;;22.60;65.20;;;;;;2089231;28;20029;-86
2022/06/23 07:08:54;;;;;;;4.60;2.10;;;22.60;65.20;;;;;;2094553;28;20052;-86
2022/06/23 07:10:22;;;;;;;;;;;22.50;65.20;;;;;;2089046;28;20025;-87
2022/06/23 07:11:51;;;;;;;3.92;2.03;;;22.50;65.30;;;;;;2087265;28;20326;-86
2022/06/23 07:13:46;;;;;;;3.90;1.85;;;22.60;65.30;;;;;;2094211;28;20498;-86
2022/06/23 07:15:30;;;;;;;4.05;1.88;;;22.70;65.20;;;;;;2095956;28;20033;-87
2022/06/23 07:17:10;;;;;;;4.55;2.00;;;22.70;64.90;;;;;;2095956;28;20024;-87
2022/06/23 07:18:38;;;;;;;4.50;2.00;;;22.90;64.90;;;;;;2093970;28;20465;-87
2022/06/23 07:20:22;;;;;;;3.05;1.98;;;22.90;64.60;;;;;;2096755;28;20024;-86
2022/06/23 07:21:47;;;;;;;4.30;1.85;;;23.00;64.50;;;;;;2088820;28;20116;-86
2022/06/23 07:23:26;;;;;;;3.67;2.20;;;23.00;64.50;;;;;;2092556;28;20037;-87
2022/06/23 07:24:55;;;;;;;3.58;2.00;;;23.10;64.30;;;;;;2091394;28;20029;-87
2022/06/23 07:26:29;;;;;;;5.25;2.60;;;23.10;64.20;;;;;;2090860;28;20123;-87
2022/06/23 07:28:03;;;;;;;4.30;2.17;;;23.20;64.30;;;;;;2093837;28;20033;-87
2022/06/23 07:29:33;;;;;;;4.30;2.20;;;23.20;64.00;;;;;;2094932;28;20524;-87
2022/06/23 07:31:01;;;;;;;4.40;2.10;;;23.30;63.80;;;;;;2097026;28;20025;-87
2022/06/23 07:32:51;;;;;;;4.63;2.17;;;23.30;63.70;;;;;;2092791;28;20032;-87
2022/06/23 07:34:12;;;;;;;2.78;1.85;;;23.40;63.80;;;;;;2096000;28;20025;-87
2022/06/23 07:35:48;;;;;;;4.20;1.70;;;23.40;63.70;;;;;;2093474;28;20029;-86
2022/06/23 07:37:18;;;;;;;3.45;2.10;;;23.50;63.50;;;;;;2091620;28;20075;-87
2022/06/23 07:38:58;;;;;;;3.33;1.60;;;23.60;63.20;;;;;;2087021;28;20037;-86
2022/06/23 07:40:18;;;;;;;2.17;1.67;;;23.70;63.10;;;;;;2094575;28;20041;-86
2022/06/23 07:42:07;;;;;;;4.03;1.92;;;23.70;63.00;;;;;;2090183;28;20037;-87
2022/06/23 07:44:06;;;;;;;3.58;1.90;;;23.80;62.90;;;;;;2090354;28;20033;-86
2022/06/23 07:45:43;;;;;;;4.10;2.00;;;23.90;62.70;;;;;;2090883;28;20033;-87
2022/06/23 07:47:03;;;;;;;3.55;1.90;;;23.90;62.60;;;;;;2092811;28;20033;-86
2022/06/23 07:48:23;;;;;;;4.07;2.03;;;24.10;62.50;;;;;;2096474;28;20036;-87
2022/06/23 07:49:42;;;;;;;3.65;2.00;;;24.10;62.20;;;;;;2089390;28;20037;-86
2022/06/23 07:51:05;;;;;;;3.38;1.83;;;24.20;62.10;;;;;;2074539;28;20029;-86
2022/06/23 07:52:25;;;;;;;3.22;1.85;;;24.30;62.00;;;;;;2084794;28;20033;-88
2022/06/23 07:53:47;;;;;;;3.58;1.92;;;24.40;62.00;;;;;;2090232;28;20028;-87
2022/06/23 07:55:09;;;;;;;3.53;1.85;;;24.40;61.70;;;;;;2095815;28;20017;-86
2022/06/23 07:56:32;;;;;;;4.35;2.00;;;24.50;61.60;;;;;;2092294;28;20103;-86
2022/06/23 07:57:53;;;;;;;3.92;2.05;;;24.60;61.50;;;;;;2101346;28;20445;-87
2022/06/23 07:59:15;;;;;;;3.33;1.90;;;24.60;61.30;;;;;;2085470;28;20037;-87
2022/06/23 08:00:42;;;;;;;3.53;1.80;;;24.70;61.20;;;;;;2091464;28;20036;-87
2022/06/23 08:02:09;;;;;;;3.95;2.10;;;24.70;61.10;;;;;;2097676;28;20021;-87
2022/06/23 08:03:52;;;;;;;4.78;2.10;;;24.70;61.10;;;;;;2092109;28;20025;-87
2022/06/23 08:05:32;;;;;;;6.18;2.30;;;24.80;61.10;;;;;;2090382;28;20037;-87
2022/06/23 08:06:54;;;;;;;2.60;1.90;;;24.80;60.90;;;;;;2097882;28;20032;-88
2022/06/23 08:08:20;;;;;;;3.60;1.95;;;24.90;60.90;;;;;;2080612;28;20116;-86
2022/06/23 08:09:46;;;;;;;2.85;1.80;;;24.90;60.80;;;;;;2097200;28;20040;-87
2022/06/23 08:13:25;;;;;;;4.00;1.90;;;25.00;60.60;;;;;;2095764;28;20033;-89
2022/06/23 08:16:49;;;;;;;4.05;2.00;;;25.30;60.30;;;;;;2099044;28;20475;-88